createdAt,value
2018-10-12T00:00:01.524Z,101113.70
2018-10-12T00:01:06.892Z,101109.67
2018-10-12T00:02:11.012Z,101112.36
2018-10-12T00:03:15.072Z,101110.52
2018-10-12T00:04:19.096Z,101110.67
2018-10-12T00:05:23.155Z,101114.70
2018-10-12T00:06:27.523Z,101124.10
2018-10-12T00:07:31.532Z,101119.76
2018-10-12T00:08:35.611Z,101128.48
2018-10-12T00:09:39.628Z,101126.79
2018-10-12T00:10:43.645Z,101128.48
2018-10-12T00:11:47.666Z,101132.51
2018-10-12T00:12:51.670Z,101137.88
2018-10-12T00:13:55.702Z,101143.75
2018-10-12T00:14:59.712Z,101140.57
2018-10-12T00:16:03.807Z,101137.53
2018-10-12T00:17:07.811Z,101138.73
2018-10-12T00:18:11.872Z,101139.72
2018-10-12T00:19:15.902Z,101139.72
2018-10-12T00:20:19.908Z,101142.76
2018-10-12T00:21:23.892Z,101146.94
2018-10-12T00:22:27.903Z,101146.94
2018-10-12T00:23:32.307Z,101137.53
2018-10-12T00:24:36.304Z,101141.56
2018-10-12T00:25:40.316Z,101147.95
2018-10-12T00:26:44.330Z,101145.59
2018-10-12T00:27:48.332Z,101143.58
2018-10-12T00:28:52.331Z,101153.48
2018-10-12T00:29:56.387Z,101145.92
2018-10-12T00:31:00.387Z,101151.29
2018-10-12T00:32:04.400Z,101154.50
2018-10-12T00:33:08.461Z,101154.16
2018-10-12T00:34:12.529Z,101150.62
2018-10-12T00:35:16.550Z,101151.13
2018-10-12T00:36:20.550Z,101150.28
2018-10-12T00:37:24.597Z,101149.11
2018-10-12T00:38:28.667Z,101146.42
2018-10-12T00:39:32.695Z,101150.95
2018-10-12T00:40:36.860Z,101147.91
2018-10-12T00:41:40.955Z,101150.78
2018-10-12T00:42:44.959Z,101143.57
2018-10-12T00:43:49.043Z,101146.75
2018-10-12T00:44:53.021Z,101140.53
2018-10-12T00:45:57.029Z,101142.88
2018-10-12T00:47:01.027Z,101149.09
2018-10-12T00:48:05.012Z,101142.52
2018-10-12T00:49:09.432Z,101140.86
2018-10-12T00:50:13.428Z,101142.20
2018-10-12T00:51:17.523Z,101137.48
2018-10-12T00:52:21.550Z,101138.82
2018-10-12T00:53:25.660Z,101135.32
2018-10-12T00:54:29.704Z,101138.50
2018-10-12T00:55:34.499Z,101135.47
2018-10-12T00:56:38.579Z,101134.12
2018-10-12T00:57:42.579Z,101136.14
2018-10-12T00:58:46.580Z,101138.83
2018-10-12T00:59:50.590Z,101147.88
2018-10-12T01:00:54.584Z,101141.31
2018-10-12T01:01:58.599Z,101148.55
2018-10-12T01:03:02.604Z,101147.70
2018-10-12T01:04:06.604Z,101153.57
2018-10-12T01:05:10.594Z,101153.57
2018-10-12T01:06:14.583Z,101162.27
2018-10-12T01:07:18.608Z,101162.63
2018-10-12T01:08:22.627Z,101155.73
2018-10-12T01:09:26.796Z,101161.95
2018-10-12T01:10:30.809Z,101163.13
2018-10-12T01:11:34.812Z,101154.54
2018-10-12T01:12:38.998Z,101159.09
2018-10-12T01:13:43.135Z,101154.72
2018-10-12T01:14:47.148Z,101156.55
2018-10-12T01:15:51.159Z,101151.19
2018-10-12T01:16:55.380Z,101159.23
2018-10-12T01:17:59.399Z,101161.92
2018-10-12T01:19:03.409Z,101147.16
2018-10-12T01:20:07.952Z,101146.81
2018-10-12T01:21:11.991Z,101141.79
2018-10-12T01:22:16.049Z,101144.97
2018-10-12T01:23:20.195Z,101145.96
2018-10-12T01:24:24.234Z,101147.66
2018-10-12T01:25:28.289Z,101156.20
2018-10-12T01:26:32.337Z,101153.20
2018-10-12T01:27:36.432Z,101151.52
2018-10-12T01:28:40.452Z,101139.43
2018-10-12T01:29:44.520Z,101138.09
2018-10-12T01:30:48.527Z,101132.05
2018-10-12T01:31:52.601Z,101135.23
2018-10-12T01:33:02.728Z,101137.91
2018-10-12T01:34:06.888Z,101142.44
2018-10-12T01:35:10.882Z,101135.37
2018-10-12T01:36:14.887Z,101133.05
2018-10-12T01:37:19.048Z,101136.72
2018-10-12T01:38:23.063Z,101134.03
2018-10-12T01:39:27.144Z,101135.84
2018-10-12T01:40:31.953Z,101128.28
2018-10-12T01:41:36.080Z,101137.67
2018-10-12T01:42:40.096Z,101130.47
2018-10-12T01:43:44.127Z,101143.05
2018-10-12T01:44:48.174Z,101151.63
2018-10-12T01:45:52.171Z,101156.15
2018-10-12T01:46:56.183Z,101162.86
2018-10-12T01:48:00.192Z,101164.20
2018-10-12T01:49:04.213Z,101166.04
2018-10-12T01:50:08.260Z,101171.41
2018-10-12T01:51:12.284Z,101164.20
2018-10-12T01:52:16.343Z,101173.25
2018-10-12T01:53:20.472Z,101171.91
2018-10-12T01:54:24.594Z,101176.42
2018-10-12T01:55:28.695Z,101173.25
2018-10-12T01:56:32.641Z,101181.65
2018-10-12T01:57:36.641Z,101179.95
2018-10-12T01:58:40.721Z,101185.67
2018-10-12T01:59:44.720Z,101183.98
2018-10-12T02:00:49.069Z,101185.67
2018-10-12T02:01:53.096Z,101175.44
2018-10-12T02:02:57.121Z,101185.67
2018-10-12T02:04:01.101Z,101176.28
2018-10-12T02:05:05.133Z,101187.34
2018-10-12T02:06:09.168Z,101184.66
2018-10-12T02:07:13.252Z,101186.52
2018-10-12T02:08:17.247Z,101194.58
2018-10-12T02:09:21.347Z,101191.05
2018-10-12T02:10:25.379Z,101188.86
2018-10-12T02:11:29.412Z,101192.70
2018-10-12T02:12:33.540Z,101188.02
2018-10-12T02:13:37.562Z,101192.88
2018-10-12T02:14:41.607Z,101198.75
2018-10-12T02:15:45.862Z,101196.56
2018-10-12T02:16:50.280Z,101194.38
2018-10-12T02:17:54.615Z,101198.40
2018-10-12T02:18:58.685Z,101205.11
2018-10-12T02:20:02.683Z,101199.73
2018-10-12T02:21:06.920Z,101203.45
2018-10-12T02:22:10.995Z,101201.08
2018-10-12T02:23:15.021Z,101199.42
2018-10-12T02:24:19.054Z,101201.75
2018-10-12T02:25:23.124Z,101201.75
2018-10-12T02:26:27.287Z,101203.59
2018-10-12T02:27:31.329Z,101197.38
2018-10-12T02:28:36.302Z,101201.89
2018-10-12T02:29:40.294Z,101201.58
2018-10-12T02:30:44.363Z,101204.75
2018-10-12T02:31:48.388Z,101207.44
2018-10-12T02:32:52.569Z,101212.95
2018-10-12T02:33:56.737Z,101219.17
2018-10-12T02:35:00.959Z,101212.95
2018-10-12T02:36:04.964Z,101217.50
2018-10-12T02:37:08.974Z,101213.97
2018-10-12T02:38:13.020Z,101210.80
2018-10-12T02:39:17.067Z,101207.76
2018-10-12T02:40:21.200Z,101208.75
2018-10-12T02:41:25.168Z,101210.94
2018-10-12T02:42:29.224Z,101213.77
2018-10-12T02:43:33.247Z,101216.80
2018-10-12T02:44:37.311Z,101216.97
2018-10-12T02:45:41.567Z,101216.13
2018-10-12T02:46:45.591Z,101222.84
2018-10-12T02:47:49.655Z,101222.48
2018-10-12T02:48:53.688Z,101225.17
2018-10-12T02:49:57.779Z,101227.85
2018-10-12T02:51:01.816Z,101224.00
2018-10-12T02:52:05.849Z,101225.48
2018-10-12T02:53:09.925Z,101230.36
2018-10-12T02:54:13.955Z,101239.40
2018-10-12T02:55:18.169Z,101243.07
2018-10-12T02:56:23.132Z,101250.80
2018-10-12T02:57:27.131Z,101253.63
2018-10-12T02:58:31.247Z,101241.23
2018-10-12T02:59:35.307Z,101250.63
2018-10-12T03:00:39.335Z,101250.63
2018-10-12T03:01:43.479Z,101249.28
2018-10-12T03:02:47.487Z,101250.77
2018-10-12T03:03:52.299Z,101250.63
2018-10-12T03:04:56.292Z,101250.63
2018-10-12T03:06:00.271Z,101252.78
2018-10-12T03:07:04.255Z,101253.30
2018-10-12T03:08:08.255Z,101259.00
2018-10-12T03:09:12.766Z,101260.20
2018-10-12T03:10:16.789Z,101256.66
2018-10-12T03:11:20.779Z,101261.86
2018-10-12T03:12:24.920Z,101266.59
2018-10-12T03:13:28.887Z,101266.42
2018-10-12T03:14:32.943Z,101264.09
2018-10-12T03:15:36.933Z,101265.61
2018-10-12T03:16:40.907Z,101265.11
2018-10-12T03:17:44.916Z,101267.97
2018-10-12T03:18:48.892Z,101259.28
2018-10-12T03:19:52.864Z,101261.30
2018-10-12T03:20:56.893Z,101257.13
2018-10-12T03:22:00.906Z,101264.02
2018-10-12T03:23:04.866Z,101264.37
2018-10-12T03:24:08.823Z,101258.37
2018-10-12T03:25:12.801Z,101260.91
2018-10-12T03:26:16.824Z,101260.23
2018-10-12T03:27:20.808Z,101256.21
2018-10-12T03:28:27.186Z,101258.90
2018-10-12T03:29:31.185Z,101262.25
2018-10-12T03:30:35.188Z,101264.58
2018-10-12T03:31:39.184Z,101267.27
2018-10-12T03:32:43.184Z,101265.19
2018-10-12T03:33:47.196Z,101260.00
2018-10-12T03:34:51.286Z,101270.38
2018-10-12T03:35:55.524Z,101267.87
2018-10-12T03:36:59.562Z,101274.23
2018-10-12T03:38:03.528Z,101274.37
2018-10-12T03:39:07.973Z,101274.89
2018-10-12T03:40:12.024Z,101279.06
2018-10-12T03:41:16.072Z,101286.77
2018-10-12T03:42:20.064Z,101285.95
2018-10-12T03:43:24.151Z,101286.94
2018-10-12T03:44:28.139Z,101287.92
2018-10-12T03:45:32.131Z,101288.09
2018-10-12T03:46:36.112Z,101280.05
2018-10-12T03:47:40.156Z,101289.09
2018-10-12T03:48:44.140Z,101292.27
2018-10-12T03:49:48.238Z,101287.88
2018-10-12T03:50:52.171Z,101289.23
2018-10-12T03:51:56.250Z,101290.74
2018-10-12T03:53:00.187Z,101297.59
2018-10-12T03:54:04.176Z,101296.25
2018-10-12T03:55:08.156Z,101304.30
2018-10-12T03:56:12.363Z,101308.50
2018-10-12T03:57:16.407Z,101306.31
2018-10-12T03:58:20.411Z,101303.27
2018-10-12T03:59:24.496Z,101312.52
2018-10-12T04:00:28.599Z,101310.83
2018-10-12T04:01:32.606Z,101314.72
2018-10-12T04:02:36.929Z,101316.55
2018-10-12T04:03:41.232Z,101316.55
2018-10-12T04:04:45.237Z,101318.74
2018-10-12T04:05:49.346Z,101316.05
2018-10-12T04:06:53.721Z,101317.05
2018-10-12T04:07:57.852Z,101317.19
2018-10-12T04:09:01.993Z,101314.67
2018-10-12T04:10:05.989Z,101318.20
2018-10-12T04:11:09.985Z,101315.66
2018-10-12T04:12:14.003Z,101313.83
2018-10-12T04:13:18.003Z,101308.59
2018-10-12T04:14:22.051Z,101307.92
2018-10-12T04:15:26.131Z,101304.88
2018-10-12T04:16:30.131Z,101298.84
2018-10-12T04:17:34.159Z,101298.84
2018-10-12T04:18:38.183Z,101297.99
2018-10-12T04:19:42.247Z,101294.14
2018-10-12T04:20:46.219Z,101290.25
2018-10-12T04:21:50.286Z,101296.11
2018-10-12T04:22:54.301Z,101302.50
2018-10-12T04:23:58.327Z,101300.80
2018-10-12T04:25:02.334Z,101306.17
2018-10-12T04:26:06.348Z,101315.20
2018-10-12T04:27:10.397Z,101317.39
2018-10-12T04:28:14.499Z,101321.91
2018-10-12T04:29:18.507Z,101324.27
2018-10-12T04:30:22.623Z,101336.67
2018-10-12T04:31:26.637Z,101329.11
2018-10-12T04:32:30.648Z,101338.50
2018-10-12T04:33:34.643Z,101334.16
2018-10-12T04:34:38.735Z,101331.47
2018-10-12T04:35:42.797Z,101333.31
2018-10-12T04:36:46.831Z,101333.31
2018-10-12T04:37:50.903Z,101334.30
2018-10-12T04:39:06.435Z,101341.00
2018-10-12T04:40:30.454Z,101339.66
2018-10-12T04:41:34.570Z,101336.62
2018-10-12T04:42:38.573Z,101337.14
2018-10-12T04:43:42.985Z,101340.46
2018-10-12T04:44:47.048Z,101345.33
2018-10-12T04:45:51.177Z,101350.70
2018-10-12T04:46:55.190Z,101352.04
2018-10-12T04:47:59.187Z,101352.04
2018-10-12T04:49:04.339Z,101354.37
2018-10-12T04:50:08.452Z,101360.45
2018-10-12T04:51:25.904Z,101360.94
2018-10-12T04:52:31.963Z,101355.70
2018-10-12T04:53:36.196Z,101359.23
2018-10-12T04:54:40.205Z,101359.41
2018-10-12T04:55:44.281Z,101363.92
2018-10-12T04:56:48.918Z,101363.43
2018-10-12T04:57:52.932Z,101369.29
2018-10-12T04:58:56.940Z,101378.68
2018-10-12T05:00:00.915Z,101376.48
2018-10-12T05:01:04.940Z,101378.68
2018-10-12T05:02:08.903Z,101385.87
2018-10-12T05:03:12.901Z,101382.84
2018-10-12T05:04:16.907Z,101385.20
2018-10-12T05:05:20.951Z,101379.83
2018-10-12T05:06:25.145Z,101384.35
2018-10-12T05:07:29.250Z,101383.01
2018-10-12T05:08:33.479Z,101383.50
2018-10-12T05:09:37.475Z,101384.84
2018-10-12T05:10:41.603Z,101393.73
2018-10-12T05:11:45.647Z,101394.23
2018-10-12T05:12:49.646Z,101400.45
2018-10-12T05:13:53.615Z,101399.59
2018-10-12T05:14:57.736Z,101400.45
2018-10-12T05:16:02.309Z,101398.25
2018-10-12T05:17:06.390Z,101400.94
2018-10-12T05:18:10.492Z,101398.75
2018-10-12T05:19:14.420Z,101412.16
2018-10-12T05:20:18.388Z,101411.80
2018-10-12T05:21:22.372Z,101415.83
2018-10-12T05:22:26.363Z,101411.97
2018-10-12T05:23:30.531Z,101413.67
2018-10-12T05:24:34.563Z,101414.30
2018-10-12T05:25:38.670Z,101419.66
2018-10-12T05:26:42.734Z,101413.94
2018-10-12T05:27:46.873Z,101423.33
2018-10-12T05:28:51.125Z,101410.93
2018-10-12T05:29:55.122Z,101425.68
2018-10-12T05:30:59.114Z,101431.54
2018-10-12T05:32:03.096Z,101432.39
2018-10-12T05:33:07.248Z,101427.65
2018-10-12T05:34:11.264Z,101430.01
2018-10-12T05:35:15.276Z,101425.49
2018-10-12T05:36:19.280Z,101425.98
2018-10-12T05:37:23.304Z,101428.31
2018-10-12T05:38:28.748Z,101430.50
2018-10-12T05:39:32.755Z,101427.46
2018-10-12T05:40:36.803Z,101426.61
2018-10-12T05:41:40.799Z,101430.31
2018-10-12T05:42:44.980Z,101434.82
2018-10-12T05:43:49.062Z,101434.82
2018-10-12T05:44:52.999Z,101439.34
2018-10-12T05:45:57.021Z,101442.02
2018-10-12T05:47:01.039Z,101439.83
2018-10-12T05:48:16.382Z,101434.63
2018-10-12T05:49:31.648Z,101437.31
2018-10-12T05:50:35.966Z,101441.47
2018-10-12T05:51:40.719Z,101440.62
2018-10-12T05:52:44.796Z,101450.36
2018-10-12T05:53:48.791Z,101452.20
2018-10-12T05:54:52.848Z,101458.05
2018-10-12T05:55:57.630Z,101462.08
2018-10-12T05:57:01.828Z,101457.69
2018-10-12T05:58:06.292Z,101454.88
2018-10-12T05:59:10.348Z,101460.73
2018-10-12T06:00:14.377Z,101457.20
2018-10-12T06:01:18.492Z,101457.06
2018-10-12T06:02:22.730Z,101456.71
2018-10-12T06:03:26.774Z,101456.22
2018-10-12T06:04:30.795Z,101457.06
2018-10-12T06:05:34.847Z,101454.39
2018-10-12T06:06:38.936Z,101462.80
2018-10-12T06:07:43.016Z,101462.80
2018-10-12T06:08:47.100Z,101463.61
2018-10-12T06:09:51.419Z,101462.27
2018-10-12T06:10:55.263Z,101460.92
2018-10-12T06:11:59.261Z,101459.09
2018-10-12T06:13:03.323Z,101460.80
2018-10-12T06:14:07.368Z,101458.11
2018-10-12T06:15:11.437Z,101459.45
2018-10-12T06:16:15.583Z,101463.47
2018-10-12T06:17:19.634Z,101463.83
2018-10-12T06:18:23.699Z,101465.17
2018-10-12T06:19:27.747Z,101462.33
2018-10-12T06:20:31.775Z,101464.16
2018-10-12T06:21:35.819Z,101461.83
2018-10-12T06:22:39.788Z,101464.52
2018-10-12T06:23:43.831Z,101465.86
2018-10-12T06:24:48.010Z,101472.42
2018-10-12T06:25:52.072Z,101470.23
2018-10-12T06:26:56.556Z,101473.77
2018-10-12T06:28:00.692Z,101476.28
2018-10-12T06:29:04.712Z,101469.58
2018-10-12T06:30:09.046Z,101479.81
2018-10-12T06:31:13.353Z,101482.50
2018-10-12T06:32:17.400Z,101486.03
2018-10-12T06:33:21.475Z,101491.23
2018-10-12T06:34:25.524Z,101490.25
2018-10-12T06:35:29.832Z,101492.93
2018-10-12T06:36:33.900Z,101496.11
2018-10-12T06:37:37.923Z,101502.51
2018-10-12T06:38:41.959Z,101501.17
2018-10-12T06:39:46.219Z,101504.21
2018-10-12T06:40:53.072Z,101506.40
2018-10-12T06:41:57.035Z,101514.64
2018-10-12T06:43:01.252Z,101511.11
2018-10-12T06:44:05.335Z,101513.30
2018-10-12T06:45:09.364Z,101519.02
2018-10-12T06:46:13.441Z,101521.70
2018-10-12T06:47:17.479Z,101529.09
2018-10-12T06:48:21.583Z,101529.45
2018-10-12T06:49:25.583Z,101530.80
2018-10-12T06:50:29.810Z,101535.51
2018-10-12T06:51:33.869Z,101534.16
2018-10-12T06:52:37.911Z,101546.95
2018-10-12T06:53:41.981Z,101549.47
2018-10-12T06:54:45.952Z,101546.30
2018-10-12T06:55:49.992Z,101548.33
2018-10-12T06:56:54.096Z,101550.52
2018-10-12T06:57:58.372Z,101544.66
2018-10-12T06:59:02.542Z,101549.05
2018-10-12T07:00:06.851Z,101551.56
2018-10-12T07:01:10.796Z,101553.26
2018-10-12T07:02:16.355Z,101554.44
2018-10-12T07:03:20.584Z,101555.78
2018-10-12T07:04:24.402Z,101556.49
2018-10-12T07:05:28.459Z,101558.69
2018-10-12T07:06:32.524Z,101558.03
2018-10-12T07:07:36.542Z,101569.12
2018-10-12T07:08:40.633Z,101564.08
2018-10-12T07:09:44.743Z,101562.60
2018-10-12T07:10:48.777Z,101561.95
2018-10-12T07:11:52.793Z,101565.34
2018-10-12T07:12:56.815Z,101564.49
2018-10-12T07:14:00.855Z,101561.64
2018-10-12T07:15:06.252Z,101564.69
2018-10-12T07:16:10.359Z,101555.65
2018-10-12T07:17:14.482Z,101559.02
2018-10-12T07:18:18.463Z,101565.59
2018-10-12T07:19:22.516Z,101574.50
2018-10-12T07:20:26.546Z,101568.47
2018-10-12T07:21:30.544Z,101570.30
2018-10-12T07:22:34.666Z,101579.20
2018-10-12T07:23:38.654Z,101572.33
2018-10-12T07:24:42.609Z,101562.44
2018-10-12T07:25:46.712Z,101570.85
2018-10-12T07:26:50.739Z,101577.92
2018-10-12T07:27:54.772Z,101574.58
2018-10-12T07:28:58.804Z,101566.72
2018-10-12T07:30:02.779Z,101573.88
2018-10-12T07:31:07.462Z,101579.79
2018-10-12T07:32:11.412Z,101584.20
2018-10-12T07:33:15.400Z,101583.89
2018-10-12T07:34:19.456Z,101581.92
2018-10-12T07:35:23.488Z,101583.95
2018-10-12T07:36:27.800Z,101583.28
2018-10-12T07:37:31.844Z,101583.81
2018-10-12T07:38:35.927Z,101588.03
2018-10-12T07:39:46.735Z,101586.52
2018-10-12T07:40:50.759Z,101586.02
2018-10-12T07:41:54.751Z,101586.73
2018-10-12T07:42:58.740Z,101591.45
2018-10-12T07:44:02.762Z,101595.83
2018-10-12T07:45:07.106Z,101595.17
2018-10-12T07:46:11.171Z,101596.87
2018-10-12T07:47:15.175Z,101596.70
2018-10-12T07:48:19.265Z,101596.20
2018-10-12T07:49:23.305Z,101603.28
2018-10-12T07:50:27.519Z,101601.94
2018-10-12T07:51:31.531Z,101603.61
2018-10-12T07:52:35.582Z,101606.29
2018-10-12T07:53:39.555Z,101603.61
2018-10-12T07:54:43.556Z,101603.11
2018-10-12T07:55:47.544Z,101609.69
2018-10-12T07:56:51.567Z,101607.00
2018-10-12T07:57:55.601Z,101608.53
2018-10-12T07:59:00.096Z,101605.00
2018-10-12T08:00:04.185Z,101608.40
2018-10-12T08:01:08.108Z,101609.08
2018-10-12T08:02:13.052Z,101604.06
2018-10-12T08:03:18.135Z,101605.59
2018-10-12T08:04:22.151Z,101598.70
2018-10-12T08:05:26.172Z,101601.75
2018-10-12T08:06:30.225Z,101604.13
2018-10-12T08:07:34.148Z,101603.14
2018-10-12T08:08:38.191Z,101609.55
2018-10-12T08:09:42.235Z,101610.72
2018-10-12T08:10:46.204Z,101610.94
2018-10-12T08:11:50.184Z,101608.93
2018-10-12T08:12:54.164Z,101602.39
2018-10-12T08:13:58.296Z,101617.39
2018-10-12T08:15:02.177Z,101615.39
2018-10-12T08:16:06.189Z,101612.20
2018-10-12T08:17:10.178Z,101613.88
2018-10-12T08:18:14.131Z,101619.11
2018-10-12T08:19:18.128Z,101622.16
2018-10-12T08:20:22.280Z,101620.99
2018-10-12T08:21:26.260Z,101624.17
2018-10-12T08:22:30.243Z,101633.27
2018-10-12T08:23:34.280Z,101637.16
2018-10-12T08:24:38.280Z,101627.09
2018-10-12T08:25:42.878Z,101631.97
2018-10-12T08:26:46.921Z,101627.77
2018-10-12T08:27:50.949Z,101629.97
2018-10-12T08:28:54.985Z,101626.64
2018-10-12T08:29:59.303Z,101632.38
2018-10-12T08:31:03.365Z,101638.11
2018-10-12T08:32:07.355Z,101637.44
2018-10-12T08:33:11.335Z,101641.83
2018-10-12T08:34:15.376Z,101641.69
2018-10-12T08:35:19.375Z,101638.50
2018-10-12T08:36:23.440Z,101646.41
2018-10-12T08:37:27.624Z,101642.02
2018-10-12T08:38:31.689Z,101643.22
2018-10-12T08:39:35.687Z,101640.88
2018-10-12T08:40:39.694Z,101642.55
2018-10-12T08:41:43.684Z,101648.14
2018-10-12T08:42:47.666Z,101650.66
2018-10-12T08:43:51.639Z,101654.03
2018-10-12T08:44:55.641Z,101652.55
2018-10-12T08:45:59.608Z,101649.71
2018-10-12T08:47:03.641Z,101649.05
2018-10-12T08:48:07.703Z,101653.44
2018-10-12T08:49:11.709Z,101655.81
2018-10-12T08:50:15.721Z,101663.39
2018-10-12T08:51:19.736Z,101659.53
2018-10-12T08:52:23.817Z,101659.86
2018-10-12T08:53:27.899Z,101659.72
2018-10-12T08:54:31.944Z,101654.52
2018-10-12T08:55:36.012Z,101649.48
2018-10-12T08:56:40.305Z,101651.19
2018-10-12T08:57:44.589Z,101651.72
2018-10-12T08:58:48.628Z,101656.26
2018-10-12T08:59:52.831Z,101653.43
2018-10-12T09:00:56.801Z,101653.78
2018-10-12T09:02:00.779Z,101652.61
2018-10-12T09:03:04.866Z,101647.59
2018-10-12T09:04:08.895Z,101648.77
2018-10-12T09:05:12.901Z,101650.78
2018-10-12T09:06:17.003Z,101650.64
2018-10-12T09:07:21.007Z,101653.19
2018-10-12T09:08:25.003Z,101649.97
2018-10-12T09:09:29.048Z,101649.65
2018-10-12T09:10:33.020Z,101648.66
2018-10-12T09:11:37.401Z,101653.90
2018-10-12T09:12:41.401Z,101648.69
2018-10-12T09:13:45.397Z,101649.05
2018-10-12T09:14:50.763Z,101646.17
2018-10-12T09:15:54.798Z,101651.06
2018-10-12T09:16:58.822Z,101654.11
2018-10-12T09:18:02.868Z,101653.44
2018-10-12T09:19:07.016Z,101653.44
2018-10-12T09:20:11.092Z,101656.80
2018-10-12T09:21:15.176Z,101650.78
2018-10-12T09:22:19.231Z,101649.25
2018-10-12T09:23:23.272Z,101654.00
2018-10-12T09:24:27.230Z,101650.81
2018-10-12T09:25:31.256Z,101664.59
2018-10-12T09:26:35.358Z,101649.14
2018-10-12T09:27:39.379Z,101655.55
2018-10-12T09:28:43.382Z,101657.22
2018-10-12T09:29:47.412Z,101651.58
2018-10-12T09:30:51.504Z,101663.38
2018-10-12T09:31:55.636Z,101663.19
2018-10-12T09:32:59.717Z,101661.53
2018-10-12T09:34:03.703Z,101659.01
2018-10-12T09:35:07.833Z,101658.86
2018-10-12T09:36:11.884Z,101655.49
2018-10-12T09:37:15.884Z,101660.73
2018-10-12T09:38:19.945Z,101656.38
2018-10-12T09:39:23.934Z,101660.27
2018-10-12T09:40:28.010Z,101659.59
2018-10-12T09:41:32.039Z,101660.61
2018-10-12T09:42:36.063Z,101657.59
2018-10-12T09:43:40.152Z,101656.42
2018-10-12T09:44:44.155Z,101652.23
2018-10-12T09:45:48.184Z,101648.36
2018-10-12T09:46:52.208Z,101652.75
2018-10-12T09:47:56.208Z,101648.03
2018-10-12T09:49:00.223Z,101650.41
2018-10-12T09:50:04.303Z,101648.91
2018-10-12T09:51:08.302Z,101652.77
2018-10-12T09:52:12.308Z,101651.77
2018-10-12T09:53:16.365Z,101644.69
2018-10-12T09:54:20.483Z,101646.73
2018-10-12T09:55:24.651Z,101649.25
2018-10-12T09:56:28.757Z,101651.80
2018-10-12T09:57:34.616Z,101649.77
2018-10-12T09:58:38.642Z,101647.25
2018-10-12T09:59:42.741Z,101647.95
2018-10-12T10:00:52.575Z,101648.12
2018-10-12T10:02:01.876Z,101640.37
2018-10-12T10:03:11.195Z,101650.48
2018-10-12T10:04:18.555Z,101644.59
2018-10-12T10:05:23.247Z,101639.02
2018-10-12T10:06:27.322Z,101640.37
2018-10-12T10:07:31.365Z,101631.78
2018-10-12T10:08:35.874Z,101633.48
2018-10-12T10:09:39.324Z,101627.91
2018-10-12T10:10:43.372Z,101634.84
2018-10-12T10:11:47.421Z,101623.88
2018-10-12T10:12:51.410Z,101629.97
2018-10-12T10:13:55.515Z,101632.48
2018-10-12T10:14:59.455Z,101629.64
2018-10-12T10:16:03.552Z,101631.66
2018-10-12T10:17:07.588Z,101631.70
2018-10-12T10:18:11.631Z,101634.91
2018-10-12T10:19:15.729Z,101629.02
2018-10-12T10:20:19.785Z,101630.03
2018-10-12T10:21:24.192Z,101623.61
2018-10-12T10:22:28.266Z,101633.06
2018-10-12T10:23:32.212Z,101626.31
2018-10-12T10:24:36.252Z,101620.27
2018-10-12T10:25:40.285Z,101622.28
2018-10-12T10:26:44.375Z,101624.30
2018-10-12T10:27:48.365Z,101622.30
2018-10-12T10:28:52.346Z,101616.91
2018-10-12T10:29:56.381Z,101622.46
2018-10-12T10:31:00.472Z,101618.77
2018-10-12T10:32:04.468Z,101619.92
2018-10-12T10:33:08.520Z,101619.92
2018-10-12T10:34:12.488Z,101620.63
2018-10-12T10:35:16.699Z,101612.34
2018-10-12T10:36:20.981Z,101610.00
2018-10-12T10:37:25.012Z,101613.01
2018-10-12T10:38:29.055Z,101612.36
2018-10-12T10:39:33.128Z,101609.47
2018-10-12T10:40:37.198Z,101609.82
2018-10-12T10:41:41.504Z,101604.77
2018-10-12T10:42:45.605Z,101604.94
2018-10-12T10:43:50.032Z,101607.13
2018-10-12T10:44:54.135Z,101606.94
2018-10-12T10:45:58.230Z,101617.58
2018-10-12T10:47:02.323Z,101607.45
2018-10-12T10:48:06.447Z,101608.65
2018-10-12T10:49:10.515Z,101610.16
2018-10-12T10:50:14.529Z,101610.31
2018-10-12T10:51:18.544Z,101612.01
2018-10-12T10:52:22.540Z,101609.13
2018-10-12T10:53:26.676Z,101611.17
2018-10-12T10:54:30.917Z,101610.17
2018-10-12T10:55:34.916Z,101612.17
2018-10-12T10:56:38.959Z,101609.14
2018-10-12T10:57:43.115Z,101614.69
2018-10-12T10:58:47.139Z,101606.75
2018-10-12T10:59:51.152Z,101613.19
2018-10-12T11:00:55.427Z,101608.27
2018-10-12T11:01:59.409Z,101602.55
2018-10-12T11:03:03.464Z,101609.80
2018-10-12T11:04:08.023Z,101608.77
2018-10-12T11:05:12.100Z,101611.66
2018-10-12T11:06:16.383Z,101602.39
2018-10-12T11:07:20.519Z,101604.41
2018-10-12T11:08:24.574Z,101606.59
2018-10-12T11:09:28.591Z,101608.11
2018-10-12T11:10:32.694Z,101613.16
2018-10-12T11:11:36.939Z,101611.16
2018-10-12T11:12:41.589Z,101614.35
2018-10-12T11:13:45.723Z,101612.50
2018-10-12T11:14:49.765Z,101611.46
2018-10-12T11:15:53.813Z,101610.80
2018-10-12T11:16:58.800Z,101609.27
2018-10-12T11:18:02.908Z,101610.45
2018-10-12T11:19:07.132Z,101610.27
2018-10-12T11:20:11.229Z,101613.97
2018-10-12T11:21:15.235Z,101604.36
2018-10-12T11:22:19.341Z,101611.11
2018-10-12T11:23:23.370Z,101605.70
2018-10-12T11:24:27.453Z,101604.36
2018-10-12T11:25:31.700Z,101606.05
2018-10-12T11:26:35.894Z,101606.36
2018-10-12T11:27:39.955Z,101610.25
2018-10-12T11:28:44.289Z,101607.55
2018-10-12T11:29:48.280Z,101603.50
2018-10-12T11:30:52.690Z,101601.80
2018-10-12T11:31:56.960Z,101602.80
2018-10-12T11:33:01.360Z,101599.60
2018-10-12T11:34:05.619Z,101600.76
2018-10-12T11:35:09.678Z,101599.41
2018-10-12T11:36:13.744Z,101600.94
2018-10-12T11:37:17.775Z,101600.25
2018-10-12T11:38:21.865Z,101593.14
2018-10-12T11:39:26.006Z,101598.20
2018-10-12T11:40:30.124Z,101591.09
2018-10-12T11:41:34.146Z,101593.09
2018-10-12T11:42:49.588Z,101592.43
2018-10-12T11:43:53.662Z,101590.72
2018-10-12T11:44:57.756Z,101585.82
2018-10-12T11:46:02.251Z,101587.52
2018-10-12T11:47:06.269Z,101582.61
2018-10-12T11:48:10.284Z,101590.52
2018-10-12T11:49:14.416Z,101583.09
2018-10-12T11:50:18.597Z,101583.25
2018-10-12T11:51:22.582Z,101587.28
2018-10-12T11:52:26.625Z,101583.41
2018-10-12T11:53:30.784Z,101588.63
2018-10-12T11:54:34.964Z,101585.25
2018-10-12T11:55:39.201Z,101582.53
2018-10-12T11:56:43.382Z,101579.48
2018-10-12T11:57:47.354Z,101579.63
2018-10-12T11:58:51.401Z,101584.16
2018-10-12T11:59:55.423Z,101579.41
2018-10-12T12:00:59.859Z,101583.79
2018-10-12T12:02:03.936Z,101580.38
2018-10-12T12:03:07.919Z,101581.03
2018-10-12T12:04:11.908Z,101575.97
2018-10-12T12:05:15.992Z,101576.30
2018-10-12T12:06:20.134Z,101572.56
2018-10-12T12:07:24.209Z,101572.23
2018-10-12T12:08:28.083Z,101571.19
2018-10-12T12:09:32.064Z,101571.02
2018-10-12T12:10:36.107Z,101573.02
2018-10-12T12:11:40.132Z,101569.31
2018-10-12T12:12:44.129Z,101568.80